createdAt,value
2018-08-22T00:01:23.851Z,53.31
2018-08-22T00:03:52.995Z,53.00
2018-08-22T00:06:22.045Z,53.28
2018-08-22T00:08:51.167Z,53.46
2018-08-22T00:11:20.418Z,53.15
2018-08-22T00:13:49.472Z,53.11
2018-08-22T00:16:18.561Z,53.13
2018-08-22T00:18:47.615Z,53.17
2018-08-22T00:21:16.670Z,53.34
2018-08-22T00:23:45.735Z,53.16
2018-08-22T00:26:14.922Z,53.35
2018-08-22T00:28:44.038Z,53.64
2018-08-22T00:31:13.103Z,53.56
2018-08-22T00:33:42.216Z,53.36
2018-08-22T00:36:11.317Z,53.64
2018-08-22T00:38:40.367Z,53.48
2018-08-22T00:41:09.436Z,53.47
2018-08-22T00:43:38.592Z,53.52
2018-08-22T00:46:07.700Z,53.59
2018-08-22T00:48:36.778Z,53.56
2018-08-22T00:51:05.879Z,53.60
2018-08-22T00:53:35.010Z,53.83
2018-08-22T00:56:04.098Z,53.80
2018-08-22T00:58:33.396Z,53.91
2018-08-22T01:01:02.468Z,53.89
2018-08-22T01:03:31.527Z,53.50
2018-08-22T01:06:00.607Z,53.65
2018-08-22T01:08:29.667Z,53.74
2018-08-22T01:10:58.755Z,53.49
2018-08-22T01:13:27.903Z,53.72
2018-08-22T01:15:56.965Z,53.80
2018-08-22T01:18:26.041Z,53.86
2018-08-22T01:20:55.141Z,53.47
2018-08-22T01:23:24.243Z,53.91
2018-08-22T01:25:53.326Z,53.63
2018-08-22T01:28:22.385Z,53.65
2018-08-22T01:30:51.538Z,53.75
2018-08-22T01:33:20.621Z,53.80
2018-08-22T01:35:49.885Z,53.70
2018-08-22T01:38:19.237Z,53.68
2018-08-22T01:40:48.427Z,53.49
2018-08-22T01:43:17.527Z,53.89
2018-08-22T01:45:46.631Z,53.75
2018-08-22T01:48:15.724Z,53.73
2018-08-22T01:50:45.087Z,53.65
2018-08-22T01:53:14.197Z,53.83
2018-08-22T01:55:43.387Z,53.81
2018-08-22T01:58:12.695Z,53.64
2018-08-22T02:00:41.806Z,53.88
2018-08-22T02:03:10.902Z,53.87
2018-08-22T02:05:43.065Z,53.80
2018-08-22T02:08:12.153Z,53.83
2018-08-22T02:10:41.253Z,53.61
2018-08-22T02:13:10.369Z,53.92
2018-08-22T02:15:39.413Z,53.45
2018-08-22T02:18:08.546Z,53.70
2018-08-22T02:20:37.621Z,53.87
2018-08-22T02:23:06.952Z,53.86
2018-08-22T02:25:36.014Z,54.13
2018-08-22T02:28:05.162Z,53.91
2018-08-22T02:30:34.228Z,53.78
2018-08-22T02:33:03.344Z,53.98
2018-08-22T02:35:32.407Z,54.35
2018-08-22T02:38:01.679Z,54.28
2018-08-22T02:40:30.816Z,54.53
2018-08-22T02:42:59.883Z,54.41
2018-08-22T02:45:29.012Z,54.63
2018-08-22T02:47:58.091Z,54.75
2018-08-22T02:50:27.305Z,55.28
2018-08-22T02:52:56.403Z,55.37
2018-08-22T02:55:25.474Z,55.30
2018-08-22T02:57:54.569Z,55.53
2018-08-22T03:00:23.719Z,55.05
2018-08-22T03:02:52.862Z,54.85
2018-08-22T03:05:22.228Z,55.28
2018-08-22T03:07:51.399Z,54.62
2018-08-22T03:10:20.591Z,54.73
2018-08-22T03:12:49.715Z,54.64
2018-08-22T03:15:18.891Z,54.40
2018-08-22T03:17:48.093Z,54.22
2018-08-22T03:20:17.287Z,54.17
2018-08-22T03:22:46.381Z,54.43
2018-08-22T03:25:15.505Z,54.57
2018-08-22T03:27:44.686Z,54.40
2018-08-22T03:30:13.772Z,54.73
2018-08-22T03:32:42.864Z,54.46
2018-08-22T03:35:11.956Z,54.54
2018-08-22T03:37:41.022Z,54.99
2018-08-22T03:40:10.160Z,54.95
2018-08-22T03:42:39.343Z,54.62
2018-08-22T03:45:08.430Z,55.07
2018-08-22T03:47:37.504Z,55.30
2018-08-22T03:50:06.869Z,55.25
2018-08-22T03:52:35.922Z,55.22
2018-08-22T03:55:04.986Z,55.31
2018-08-22T03:57:34.078Z,55.46
2018-08-22T04:00:03.229Z,55.00
2018-08-22T04:02:32.296Z,55.25
2018-08-22T04:05:01.406Z,55.59
2018-08-22T04:07:30.662Z,55.46
2018-08-22T04:09:59.758Z,55.51
2018-08-22T04:12:28.894Z,55.18
2018-08-22T04:14:57.996Z,55.42
2018-08-22T04:17:31.499Z,55.54
2018-08-22T04:20:00.578Z,55.55
2018-08-22T04:22:29.646Z,55.91
2018-08-22T04:24:58.638Z,55.81
2018-08-22T04:27:27.780Z,56.00
2018-08-22T04:29:56.912Z,56.03
2018-08-22T04:32:26.044Z,55.63
2018-08-22T04:34:55.190Z,56.07
2018-08-22T04:37:24.335Z,56.01
2018-08-22T04:39:53.561Z,55.81
2018-08-22T04:42:22.677Z,56.14
2018-08-22T04:44:51.999Z,55.77
2018-08-22T04:47:21.062Z,55.59
2018-08-22T04:49:50.128Z,55.71
2018-08-22T04:52:19.267Z,55.82
2018-08-22T04:54:48.326Z,55.65
2018-08-22T04:57:17.430Z,55.97
2018-08-22T04:59:46.538Z,55.81
2018-08-22T05:02:15.639Z,56.42
2018-08-22T05:04:44.702Z,56.09
2018-08-22T05:07:13.827Z,55.96
2018-08-22T05:09:42.907Z,56.01
2018-08-22T05:12:11.895Z,55.81
2018-08-22T05:14:41.014Z,55.93
2018-08-22T05:17:09.996Z,56.20
2018-08-22T05:19:39.123Z,55.93
2018-08-22T05:22:08.210Z,55.87
2018-08-22T05:24:37.334Z,56.19
2018-08-22T05:27:06.629Z,56.27
2018-08-22T05:29:35.786Z,56.18
2018-08-22T05:32:04.923Z,56.39
2018-08-22T05:34:33.988Z,56.08
2018-08-22T05:37:03.071Z,56.21
2018-08-22T05:39:32.180Z,56.07
2018-08-22T05:42:01.263Z,56.09
2018-08-22T05:44:30.392Z,56.08
2018-08-22T05:46:59.459Z,55.94
2018-08-22T05:49:28.562Z,56.34
2018-08-22T05:51:57.551Z,56.37
2018-08-22T05:54:26.630Z,56.52
2018-08-22T05:56:55.707Z,56.55
2018-08-22T05:59:24.851Z,56.48
2018-08-22T06:01:53.907Z,55.86
2018-08-22T06:04:23.025Z,56.34
2018-08-22T06:06:52.020Z,55.83
2018-08-22T06:09:21.136Z,56.09
2018-08-22T06:11:50.231Z,56.17
2018-08-22T06:14:19.303Z,56.01
2018-08-22T06:16:48.371Z,56.00
2018-08-22T06:19:17.448Z,56.39
2018-08-22T06:21:46.583Z,55.89
2018-08-22T06:24:15.703Z,55.80
2018-08-22T06:26:44.787Z,55.97
2018-08-22T06:29:13.871Z,56.00
2018-08-22T06:31:43.011Z,55.53
2018-08-22T06:34:12.203Z,55.82
2018-08-22T06:36:41.367Z,55.99
2018-08-22T06:39:11.481Z,55.66
2018-08-22T06:41:40.872Z,55.37
2018-08-22T06:44:10.045Z,55.05
2018-08-22T06:46:39.300Z,55.10
2018-08-22T06:49:08.400Z,55.09
2018-08-22T06:51:37.707Z,54.99
2018-08-22T06:54:06.950Z,54.67
2018-08-22T06:56:36.051Z,54.58
2018-08-22T06:59:05.238Z,54.34
2018-08-22T07:01:34.356Z,54.29
2018-08-22T07:04:03.440Z,54.47
2018-08-22T07:06:32.540Z,54.54
2018-08-22T07:09:01.686Z,54.50
2018-08-22T07:11:30.785Z,54.35
2018-08-22T07:13:59.943Z,54.12
2018-08-22T07:16:29.176Z,54.10
2018-08-22T07:18:58.292Z,54.10
2018-08-22T07:21:27.387Z,53.81
2018-08-22T07:23:56.468Z,53.35
2018-08-22T07:26:25.728Z,53.54
2018-08-22T07:28:54.962Z,53.67
2018-08-22T07:31:24.028Z,53.05
2018-08-22T07:33:53.242Z,52.87
2018-08-22T07:36:22.350Z,53.33
2018-08-22T07:38:51.461Z,52.82
2018-08-22T07:41:20.535Z,52.47
2018-08-22T07:43:49.636Z,52.67
2018-08-22T07:46:18.722Z,52.13
2018-08-22T07:48:47.821Z,52.06
2018-08-22T07:51:16.947Z,51.96
2018-08-22T07:53:46.030Z,51.59
2018-08-22T07:56:15.092Z,51.53
2018-08-22T07:58:44.433Z,51.49
2018-08-22T08:01:13.515Z,51.62
2018-08-22T08:03:42.603Z,51.13
2018-08-22T08:06:11.699Z,51.01
2018-08-22T08:08:40.830Z,50.99
2018-08-22T08:11:10.057Z,50.72
2018-08-22T08:13:39.188Z,50.62
2018-08-22T08:16:08.311Z,50.54
2018-08-22T08:18:37.405Z,51.00
2018-08-22T08:21:06.492Z,50.36
2018-08-22T08:23:35.562Z,49.82
2018-08-22T08:26:04.743Z,50.18
2018-08-22T08:28:33.992Z,49.77
2018-08-22T08:31:03.172Z,49.01
2018-08-22T08:33:32.341Z,49.23
2018-08-22T08:36:01.487Z,48.96
2018-08-22T08:38:30.779Z,48.88
2018-08-22T08:41:05.302Z,49.11
2018-08-22T08:43:34.960Z,48.05
2018-08-22T08:46:04.443Z,48.09
2018-08-22T08:48:33.843Z,48.42
2018-08-22T08:51:03.018Z,48.74
2018-08-22T08:53:32.415Z,48.60
2018-08-22T08:56:01.834Z,48.52
2018-08-22T08:58:31.067Z,48.24
2018-08-22T09:01:00.236Z,48.48
2018-08-22T09:03:29.305Z,48.37
2018-08-22T09:05:58.525Z,48.40
2018-08-22T09:08:27.600Z,48.52
2018-08-22T09:10:56.716Z,47.96
2018-08-22T09:13:25.809Z,48.45
2018-08-22T09:15:54.879Z,48.33
2018-08-22T09:18:23.971Z,47.42
2018-08-22T09:20:53.596Z,48.19
2018-08-22T09:23:22.711Z,48.28
2018-08-22T09:25:51.807Z,47.69
2018-08-22T09:28:20.975Z,48.14
2018-08-22T09:30:50.097Z,48.45
2018-08-22T09:33:19.273Z,48.24
2018-08-22T09:35:48.398Z,47.67
2018-08-22T09:38:17.693Z,47.78
2018-08-22T09:40:46.872Z,48.09
2018-08-22T09:43:16.117Z,47.99
2018-08-22T09:45:45.466Z,48.49
2018-08-22T09:48:14.519Z,48.62
2018-08-22T09:50:43.681Z,49.09
2018-08-22T09:53:12.923Z,49.10
2018-08-22T09:55:42.063Z,49.06
2018-08-22T09:58:11.156Z,48.61
2018-08-22T10:00:45.878Z,48.57
2018-08-22T10:03:15.144Z,49.02
2018-08-22T10:05:44.215Z,48.45
2018-08-22T10:08:13.288Z,48.42
2018-08-22T10:10:42.367Z,48.79
2018-08-22T10:13:11.626Z,48.98
2018-08-22T10:15:40.980Z,48.14
2018-08-22T10:18:10.190Z,48.27
2018-08-22T10:20:39.271Z,48.71
2018-08-22T10:23:08.402Z,48.97
2018-08-22T10:25:37.566Z,49.37
2018-08-22T10:28:06.654Z,49.11
2018-08-22T10:30:35.859Z,48.50
2018-08-22T10:33:05.043Z,48.54
2018-08-22T10:35:34.262Z,48.47
2018-08-22T10:38:03.468Z,48.35
2018-08-22T10:40:32.568Z,48.25
2018-08-22T10:43:01.665Z,49.03
2018-08-22T10:45:30.756Z,48.73
2018-08-22T10:47:59.998Z,48.63
2018-08-22T10:50:29.377Z,48.37
2018-08-22T10:52:58.455Z,48.35
2018-08-22T10:55:27.568Z,48.35
2018-08-22T10:57:56.804Z,48.30
2018-08-22T11:00:25.890Z,48.14
2018-08-22T11:02:55.033Z,48.32
2018-08-22T11:05:24.137Z,48.09
2018-08-22T11:07:53.234Z,48.24
2018-08-22T11:10:22.303Z,48.13
2018-08-22T11:12:51.390Z,48.84
2018-08-22T11:15:20.523Z,48.28
2018-08-22T11:17:49.826Z,48.11
2018-08-22T11:20:19.004Z,47.72
2018-08-22T11:22:59.620Z,47.99
2018-08-22T11:25:40.309Z,47.28
2018-08-22T11:28:20.764Z,47.48
2018-08-22T11:31:01.187Z,47.72
2018-08-22T11:33:41.780Z,47.14
2018-08-22T11:36:09.812Z,47.73
2018-08-22T11:38:38.903Z,47.37
2018-08-22T11:41:08.137Z,47.22
2018-08-22T11:43:37.805Z,46.99
2018-08-22T11:46:06.901Z,47.28
2018-08-22T11:48:35.988Z,46.79
2018-08-22T11:51:05.605Z,47.29
2018-08-22T11:53:34.659Z,47.34
2018-08-22T11:56:03.848Z,47.16
2018-08-22T11:58:33.068Z,46.73
2018-08-22T12:01:02.170Z,46.83
2018-08-22T12:03:31.384Z,46.31
2018-08-22T12:06:00.549Z,46.82
2018-08-22T12:08:29.672Z,46.50
2018-08-22T12:10:58.952Z,47.17
2018-08-22T12:13:28.059Z,46.22
2018-08-22T12:15:57.173Z,46.45
2018-08-22T12:18:26.286Z,45.92
2018-08-22T12:20:55.473Z,45.59
2018-08-22T12:23:24.574Z,45.65
2018-08-22T12:25:53.864Z,45.92
2018-08-22T12:28:22.975Z,46.02
2018-08-22T12:30:52.081Z,45.97
2018-08-22T12:33:21.251Z,45.93
2018-08-22T12:35:50.374Z,45.83
2018-08-22T12:38:19.442Z,45.87
2018-08-22T12:40:48.529Z,45.46
2018-08-22T12:43:18.371Z,45.79
2018-08-22T12:45:47.415Z,45.72
2018-08-22T12:48:16.569Z,45.88
2018-08-22T12:50:45.639Z,46.53
2018-08-22T12:53:14.724Z,45.89
2018-08-22T12:55:43.832Z,46.05
2018-08-22T12:58:12.944Z,46.04
2018-08-22T13:00:42.032Z,45.74
2018-08-22T13:03:11.162Z,46.41
2018-08-22T13:05:40.301Z,46.41
2018-08-22T13:08:09.409Z,46.48
2018-08-22T13:10:38.502Z,45.79
2018-08-22T13:13:07.724Z,45.14
2018-08-22T13:15:36.875Z,45.61
2018-08-22T13:18:06.099Z,45.20
2018-08-22T13:20:35.161Z,45.11
2018-08-22T13:23:04.323Z,45.12
2018-08-22T13:25:33.487Z,45.09
2018-08-22T13:28:02.742Z,45.64
2018-08-22T13:30:31.890Z,45.68
2018-08-22T13:33:01.100Z,45.82
2018-08-22T13:35:30.188Z,44.84
2018-08-22T13:37:59.483Z,45.26
2018-08-22T13:40:28.596Z,45.16
2018-08-22T13:42:57.675Z,45.43
2018-08-22T13:45:26.794Z,45.51
2018-08-22T13:47:55.891Z,45.24
2018-08-22T13:50:25.067Z,44.71
2018-08-22T13:52:54.133Z,44.46
2018-08-22T13:55:23.199Z,44.48
2018-08-22T13:57:52.338Z,44.75
2018-08-22T14:00:21.461Z,44.81
2018-08-22T14:02:51.619Z,44.87
2018-08-22T14:05:20.702Z,44.40
2018-08-22T14:07:49.860Z,45.33
2018-08-22T14:10:18.915Z,45.53
2018-08-22T14:12:48.091Z,44.86
2018-08-22T14:15:17.276Z,45.14
2018-08-22T14:17:46.307Z,45.15
2018-08-22T14:20:15.418Z,44.66
2018-08-22T14:22:44.495Z,44.31
2018-08-22T14:25:13.652Z,45.32
2018-08-22T14:27:42.842Z,44.77
2018-08-22T14:30:11.934Z,44.33
2018-08-22T14:32:41.205Z,45.50
2018-08-22T14:35:10.421Z,45.54
2018-08-22T14:37:39.545Z,45.52
2018-08-22T14:40:08.689Z,45.52
2018-08-22T14:42:37.932Z,45.76
2018-08-22T14:45:07.487Z,46.16
2018-08-22T14:47:36.791Z,46.00
2018-08-22T14:50:06.799Z,45.79
2018-08-22T14:52:36.216Z,46.15
2018-08-22T14:55:05.371Z,46.00
2018-08-22T14:57:34.612Z,45.85
2018-08-22T15:00:03.736Z,46.50
2018-08-22T15:02:33.018Z,46.70
2018-08-22T15:05:02.115Z,46.42
2018-08-22T15:07:31.395Z,46.32
2018-08-22T15:10:00.446Z,46.84
2018-08-22T15:12:29.519Z,46.37
2018-08-22T15:14:58.645Z,46.50
2018-08-22T15:17:27.823Z,46.16
2018-08-22T15:19:56.904Z,46.00
2018-08-22T15:22:26.169Z,46.67
2018-08-22T15:24:55.307Z,46.32
2018-08-22T15:27:24.417Z,46.12
2018-08-22T15:29:53.748Z,46.17
2018-08-22T15:32:23.365Z,46.48
2018-08-22T15:34:54.336Z,46.12
2018-08-22T15:37:24.140Z,45.73
2018-08-22T15:39:53.271Z,46.00
2018-08-22T15:42:22.332Z,46.01
2018-08-22T15:44:51.454Z,46.32
2018-08-22T15:47:20.731Z,45.96
2018-08-22T15:49:49.983Z,46.06
2018-08-22T15:52:19.058Z,45.94
2018-08-22T15:55:03.859Z,45.97
2018-08-22T15:57:48.301Z,46.03
2018-08-22T16:00:36.595Z,46.07
2018-08-22T16:03:07.004Z,45.69
2018-08-22T16:05:36.954Z,45.63
2018-08-22T16:08:06.323Z,45.84
2018-08-22T16:10:35.391Z,46.12
2018-08-22T16:13:04.451Z,45.35
2018-08-22T16:15:34.940Z,45.96
2018-08-22T16:18:07.407Z,46.17
2018-08-22T16:20:43.533Z,45.52
2018-08-22T16:23:12.613Z,45.94
2018-08-22T16:25:43.938Z,45.57
2018-08-22T16:28:13.070Z,45.96
2018-08-22T16:30:42.405Z,45.90
2018-08-22T16:33:11.823Z,45.71
2018-08-22T16:35:41.000Z,46.04
2018-08-22T16:38:11.249Z,45.66
2018-08-22T16:40:41.984Z,45.65
2018-08-22T16:43:11.144Z,45.37
2018-08-22T16:45:46.091Z,44.93
2018-08-22T16:48:18.183Z,45.05
2018-08-22T16:50:47.438Z,45.15
2018-08-22T16:53:16.531Z,46.05
2018-08-22T16:55:46.219Z,46.14
2018-08-22T16:58:16.054Z,46.49
2018-08-22T17:00:46.803Z,46.19
2018-08-22T17:03:15.887Z,46.33
2018-08-22T17:05:44.971Z,46.26
2018-08-22T17:08:14.142Z,46.77
2018-08-22T17:10:54.620Z,46.85
2018-08-22T17:13:32.726Z,47.42
2018-08-22T17:16:02.348Z,47.09
2018-08-22T17:18:31.540Z,46.90
2018-08-22T17:21:00.652Z,47.22
2018-08-22T17:23:29.850Z,47.20
2018-08-22T17:25:59.131Z,47.12
2018-08-22T17:28:33.704Z,47.66
2018-08-22T17:31:03.588Z,47.14
2018-08-22T17:33:36.723Z,47.39
2018-08-22T17:36:06.773Z,47.18
2018-08-22T17:38:35.984Z,47.48
2018-08-22T17:41:05.196Z,47.46
2018-08-22T17:43:49.824Z,47.33
2018-08-22T17:46:19.054Z,47.44
2018-08-22T17:48:48.241Z,47.71
2018-08-22T17:51:17.442Z,47.86
2018-08-22T17:53:46.634Z,48.83
2018-08-22T17:56:15.752Z,49.34
2018-08-22T17:58:44.880Z,50.22
2018-08-22T18:01:13.948Z,50.15
2018-08-22T18:03:43.089Z,49.89
2018-08-22T18:06:12.220Z,49.82
2018-08-22T18:08:41.499Z,48.71
2018-08-22T18:11:10.727Z,48.67
2018-08-22T18:13:39.806Z,48.82
2018-08-22T18:16:08.919Z,47.87
2018-08-22T18:18:38.005Z,48.10
2018-08-22T18:21:07.083Z,47.80
2018-08-22T18:23:39.040Z,47.99
2018-08-22T18:26:08.143Z,47.95
2018-08-22T18:28:37.236Z,47.91
2018-08-22T18:31:06.507Z,47.70
2018-08-22T18:33:45.880Z,47.67
2018-08-22T18:36:15.115Z,47.64
2018-08-22T18:38:57.459Z,47.07
2018-08-22T18:41:26.563Z,47.56
2018-08-22T18:43:55.639Z,47.72
2018-08-22T18:46:25.927Z,47.11
2018-08-22T18:48:55.010Z,47.10
2018-08-22T18:51:24.393Z,46.88
2018-08-22T18:53:53.466Z,46.97
2018-08-22T18:56:22.906Z,46.21
2018-08-22T18:58:52.000Z,46.59
2018-08-22T19:01:21.103Z,46.37
2018-08-22T19:03:50.296Z,46.07
2018-08-22T19:06:19.400Z,46.55
2018-08-22T19:08:48.489Z,46.10
2018-08-22T19:11:17.586Z,45.98
2018-08-22T19:13:46.654Z,45.85
2018-08-22T19:16:15.725Z,46.13
2018-08-22T19:18:44.779Z,46.58
2018-08-22T19:21:13.870Z,46.70
2018-08-22T19:23:44.788Z,46.37
2018-08-22T19:26:14.414Z,46.47
2018-08-22T19:28:56.773Z,46.51
2018-08-22T19:31:25.871Z,46.38
2018-08-22T19:33:55.016Z,46.61
2018-08-22T19:36:24.094Z,46.87
2018-08-22T19:38:53.196Z,46.79
2018-08-22T19:41:27.468Z,47.12
2018-08-22T19:43:56.632Z,47.39
2018-08-22T19:46:25.810Z,47.15
2018-08-22T19:48:55.085Z,47.47
2018-08-22T19:51:24.428Z,47.31
2018-08-22T19:53:59.060Z,47.42
2018-08-22T19:56:30.435Z,47.49
2018-08-22T19:58:59.753Z,47.45
2018-08-22T20:01:30.326Z,47.79
2018-08-22T20:03:59.452Z,47.75
2018-08-22T20:06:28.728Z,48.07
2018-08-22T20:08:59.050Z,47.94
2018-08-22T20:11:28.506Z,47.92
2018-08-22T20:13:59.450Z,48.19
2018-08-22T20:16:28.579Z,48.20
2018-08-22T20:18:58.964Z,48.03
2018-08-22T20:21:32.019Z,47.98
2018-08-22T20:24:01.899Z,48.12
2018-08-22T20:26:31.477Z,48.32
2018-08-22T20:29:01.607Z,48.32
2018-08-22T20:31:32.276Z,48.71
2018-08-22T20:34:12.295Z,48.47
2018-08-22T20:36:44.143Z,48.41
2018-08-22T20:39:14.154Z,48.71
2018-08-22T20:41:43.868Z,48.83
2018-08-22T20:44:19.925Z,48.98
2018-08-22T20:46:54.390Z,48.87
2018-08-22T20:49:23.496Z,48.81
2018-08-22T20:51:52.672Z,48.95
2018-08-22T20:54:24.159Z,49.32
2018-08-22T20:56:58.590Z,48.96
2018-08-22T20:59:27.770Z,49.04
2018-08-22T21:02:03.807Z,49.18
2018-08-22T21:04:33.623Z,49.36
2018-08-22T21:07:03.081Z,49.08
2018-08-22T21:09:32.256Z,49.48
2018-08-22T21:12:01.330Z,49.58
2018-08-22T21:14:31.086Z,49.23
2018-08-22T21:17:00.292Z,49.40
2018-08-22T21:19:29.416Z,49.64
2018-08-22T21:21:58.684Z,49.54
2018-08-22T21:24:28.028Z,49.42
2018-08-22T21:26:57.188Z,49.53
2018-08-22T21:29:26.319Z,49.56
2018-08-22T21:31:55.428Z,49.90
2018-08-22T21:34:24.518Z,49.84
2018-08-22T21:36:53.583Z,49.64
2018-08-22T21:39:23.644Z,50.02
2018-08-22T21:41:52.970Z,50.20
2018-08-22T21:44:23.111Z,49.91
2018-08-22T21:46:58.498Z,50.55
2018-08-22T21:49:28.266Z,50.02
2018-08-22T21:51:59.766Z,49.99
2018-08-22T21:54:29.111Z,50.24
2018-08-22T21:56:58.174Z,50.06
2018-08-22T21:59:27.692Z,50.46
2018-08-22T22:02:02.019Z,50.01
2018-08-22T22:04:33.803Z,50.15
2018-08-22T22:07:04.035Z,49.99
2018-08-22T22:09:33.522Z,50.28
2018-08-22T22:12:03.285Z,50.46
2018-08-22T22:14:35.453Z,50.18
2018-08-22T22:17:05.206Z,50.38
2018-08-22T22:19:36.035Z,50.28
2018-08-22T22:22:05.364Z,50.39
2018-08-22T22:24:43.695Z,50.64
2018-08-22T22:27:13.183Z,50.19
2018-08-22T22:29:42.244Z,50.59
2018-08-22T22:32:11.295Z,50.30
2018-08-22T22:34:40.536Z,50.39
2018-08-22T22:37:09.619Z,50.56
2018-08-22T22:39:44.884Z,50.88
2018-08-22T22:42:19.408Z,50.64
2018-08-22T22:44:49.778Z,50.79
2018-08-22T22:47:24.271Z,51.00
2018-08-22T22:49:53.420Z,50.84
2018-08-22T22:52:28.989Z,51.18
2018-08-22T22:54:59.244Z,50.99
2018-08-22T22:57:29.482Z,51.33
2018-08-22T22:59:59.214Z,51.07
2018-08-22T23:02:28.691Z,51.09
2018-08-22T23:04:58.549Z,50.89
2018-08-22T23:07:30.188Z,50.94
2018-08-22T23:10:00.504Z,50.94
2018-08-22T23:12:33.788Z,51.36
2018-08-22T23:15:03.056Z,51.21
2018-08-22T23:17:32.111Z,51.13
2018-08-22T23:20:12.955Z,51.17
2018-08-22T23:22:42.085Z,51.35
2018-08-22T23:25:11.544Z,51.38
2018-08-22T23:27:41.127Z,51.26
2018-08-22T23:30:10.756Z,51.50
2018-08-22T23:32:39.884Z,51.64
2018-08-22T23:35:28.201Z,51.77
2018-08-22T23:38:00.163Z,51.74
2018-08-22T23:40:30.355Z,51.24
2018-08-22T23:42:59.492Z,51.46
2018-08-22T23:45:28.782Z,51.78
2018-08-22T23:47:57.827Z,51.74
2018-08-22T23:50:45.286Z,51.91
2018-08-22T23:53:14.417Z,51.70
2018-08-22T23:55:43.525Z,51.90
2018-08-22T23:58:12.742Z,51.80
